sensor_id;sensor_type;location;lat;lon;timestamp;P1;durP1;ratioP1;P2;durP2;ratioP2
43363;SDS011;40636;52.424;-1.948;2023-05-07T00:01:44;7.20;;;4.88;;
43363;SDS011;40636;52.424;-1.948;2023-05-07T00:04:11;6.43;;;4.63;;
43363;SDS011;40636;52.424;-1.948;2023-05-07T00:06:38;7.35;;;4.93;;
43363;SDS011;40636;52.424;-1.948;2023-05-07T00:09:06;9.13;;;5.80;;
43363;SDS011;40636;52.424;-1.948;2023-05-07T00:11:33;8.30;;;4.80;;
43363;SDS011;40636;52.424;-1.948;2023-05-07T00:14:02;9.02;;;5.65;;
43363;SDS011;40636;52.424;-1.948;2023-05-07T00:16:29;7.53;;;5.45;;
43363;SDS011;40636;52.424;-1.948;2023-05-07T00:18:57;10.65;;;6.55;;
43363;SDS011;40636;52.424;-1.948;2023-05-07T00:21:24;8.10;;;5.45;;
43363;SDS011;40636;52.424;-1.948;2023-05-07T00:23:53;6.60;;;4.55;;
43363;SDS011;40636;52.424;-1.948;2023-05-07T00:26:20;9.32;;;5.60;;
43363;SDS011;40636;52.424;-1.948;2023-05-07T00:28:47;9.27;;;5.65;;
43363;SDS011;40636;52.424;-1.948;2023-05-07T00:31:14;9.68;;;5.95;;
43363;SDS011;40636;52.424;-1.948;2023-05-07T00:33:40;8.23;;;5.28;;
43363;SDS011;40636;52.424;-1.948;2023-05-07T00:36:07;7.32;;;4.60;;
43363;SDS011;40636;52.424;-1.948;2023-05-07T00:38:34;6.82;;;4.47;;
43363;SDS011;40636;52.424;-1.948;2023-05-07T00:41:00;6.85;;;4.50;;
43363;SDS011;40636;52.424;-1.948;2023-05-07T00:43:28;7.35;;;4.57;;
43363;SDS011;40636;52.424;-1.948;2023-05-07T00:45:55;7.60;;;5.25;;
43363;SDS011;40636;52.424;-1.948;2023-05-07T00:48:22;8.10;;;5.15;;
43363;SDS011;40636;52.424;-1.948;2023-05-07T00:50:50;9.73;;;5.70;;
43363;SDS011;40636;52.424;-1.948;2023-05-07T00:53:17;11.70;;;7.13;;
43363;SDS011;40636;52.424;-1.948;2023-05-07T00:55:44;12.05;;;6.28;;
43363;SDS011;40636;52.424;-1.948;2023-05-07T00:58:11;12.63;;;6.68;;
43363;SDS011;40636;52.424;-1.948;2023-05-07T01:00:38;12.07;;;7.28;;
43363;SDS011;40636;52.424;-1.948;2023-05-07T01:03:04;13.57;;;7.30;;
43363;SDS011;40636;52.424;-1.948;2023-05-07T01:05:32;10.75;;;6.03;;
43363;SDS011;40636;52.424;-1.948;2023-05-07T01:07:59;12.68;;;6.93;;
43363;SDS011;40636;52.424;-1.948;2023-05-07T01:10:27;8.68;;;5.20;;
43363;SDS011;40636;52.424;-1.948;2023-05-07T01:12:57;9.38;;;5.47;;
43363;SDS011;40636;52.424;-1.948;2023-05-07T01:15:25;8.90;;;6.10;;
43363;SDS011;40636;52.424;-1.948;2023-05-07T01:17:52;9.32;;;5.88;;
43363;SDS011;40636;52.424;-1.948;2023-05-07T01:20:19;10.68;;;5.82;;
43363;SDS011;40636;52.424;-1.948;2023-05-07T01:22:46;9.80;;;5.88;;
43363;SDS011;40636;52.424;-1.948;2023-05-07T01:25:13;11.27;;;6.28;;
43363;SDS011;40636;52.424;-1.948;2023-05-07T01:27:43;10.48;;;6.25;;
43363;SDS011;40636;52.424;-1.948;2023-05-07T01:30:09;10.95;;;6.35;;
43363;SDS011;40636;52.424;-1.948;2023-05-07T01:32:47;13.13;;;6.15;;
43363;SDS011;40636;52.424;-1.948;2023-05-07T01:35:18;10.75;;;6.32;;
43363;SDS011;40636;52.424;-1.948;2023-05-07T01:37:48;10.32;;;5.90;;
43363;SDS011;40636;52.424;-1.948;2023-05-07T01:40:16;10.93;;;6.15;;
43363;SDS011;40636;52.424;-1.948;2023-05-07T01:42:43;13.00;;;6.38;;
43363;SDS011;40636;52.424;-1.948;2023-05-07T01:45:10;10.05;;;6.15;;
43363;SDS011;40636;52.424;-1.948;2023-05-07T01:47:37;10.38;;;6.03;;
43363;SDS011;40636;52.424;-1.948;2023-05-07T01:50:06;11.25;;;6.53;;
43363;SDS011;40636;52.424;-1.948;2023-05-07T01:52:36;11.50;;;6.57;;
43363;SDS011;40636;52.424;-1.948;2023-05-07T01:55:04;15.40;;;7.13;;
43363;SDS011;40636;52.424;-1.948;2023-05-07T01:57:32;12.32;;;6.07;;
43363;SDS011;40636;52.424;-1.948;2023-05-07T01:59:59;11.50;;;6.00;;
43363;SDS011;40636;52.424;-1.948;2023-05-07T02:02:25;10.60;;;6.45;;
43363;SDS011;40636;52.424;-1.948;2023-05-07T02:04:52;12.57;;;6.18;;
43363;SDS011;40636;52.424;-1.948;2023-05-07T02:07:19;11.65;;;6.65;;
43363;SDS011;40636;52.424;-1.948;2023-05-07T02:09:46;12.40;;;7.43;;
43363;SDS011;40636;52.424;-1.948;2023-05-07T02:12:13;12.13;;;7.07;;
43363;SDS011;40636;52.424;-1.948;2023-05-07T02:14:39;10.45;;;6.07;;
43363;SDS011;40636;52.424;-1.948;2023-05-07T02:17:07;12.40;;;5.93;;
43363;SDS011;40636;52.424;-1.948;2023-05-07T02:19:34;10.20;;;6.22;;
43363;SDS011;40636;52.424;-1.948;2023-05-07T02:22:01;9.88;;;6.07;;
43363;SDS011;40636;52.424;-1.948;2023-05-07T02:24:28;11.85;;;7.22;;
43363;SDS011;40636;52.424;-1.948;2023-05-07T02:26:54;12.02;;;7.00;;
43363;SDS011;40636;52.424;-1.948;2023-05-07T02:29:21;11.65;;;5.85;;
43363;SDS011;40636;52.424;-1.948;2023-05-07T02:31:48;11.50;;;6.50;;
43363;SDS011;40636;52.424;-1.948;2023-05-07T02:34:17;12.75;;;7.18;;
43363;SDS011;40636;52.424;-1.948;2023-05-07T02:36:44;13.77;;;7.00;;
43363;SDS011;40636;52.424;-1.948;2023-05-07T02:39:12;14.07;;;7.20;;
43363;SDS011;40636;52.424;-1.948;2023-05-07T02:41:39;16.05;;;7.88;;
43363;SDS011;40636;52.424;-1.948;2023-05-07T02:44:05;13.70;;;8.80;;
43363;SDS011;40636;52.424;-1.948;2023-05-07T02:46:32;14.35;;;7.63;;
43363;SDS011;40636;52.424;-1.948;2023-05-07T02:48:59;12.38;;;7.38;;
43363;SDS011;40636;52.424;-1.948;2023-05-07T02:51:26;13.48;;;7.43;;
43363;SDS011;40636;52.424;-1.948;2023-05-07T02:53:53;14.50;;;8.05;;
43363;SDS011;40636;52.424;-1.948;2023-05-07T02:56:20;15.68;;;8.30;;
43363;SDS011;40636;52.424;-1.948;2023-05-07T02:58:47;14.55;;;8.75;;
43363;SDS011;40636;52.424;-1.948;2023-05-07T03:01:14;15.27;;;8.23;;
43363;SDS011;40636;52.424;-1.948;2023-05-07T03:03:41;16.55;;;8.60;;
43363;SDS011;40636;52.424;-1.948;2023-05-07T03:06:07;14.05;;;7.90;;
43363;SDS011;40636;52.424;-1.948;2023-05-07T03:08:34;14.82;;;8.82;;
43363;SDS011;40636;52.424;-1.948;2023-05-07T03:11:01;15.07;;;8.18;;
43363;SDS011;40636;52.424;-1.948;2023-05-07T03:13:27;14.55;;;8.88;;
43363;SDS011;40636;52.424;-1.948;2023-05-07T03:15:54;13.98;;;8.00;;
43363;SDS011;40636;52.424;-1.948;2023-05-07T03:18:21;14.90;;;7.95;;
43363;SDS011;40636;52.424;-1.948;2023-05-07T03:20:48;17.88;;;9.30;;
43363;SDS011;40636;52.424;-1.948;2023-05-07T03:23:15;17.05;;;9.13;;
43363;SDS011;40636;52.424;-1.948;2023-05-07T03:25:41;18.42;;;8.55;;
43363;SDS011;40636;52.424;-1.948;2023-05-07T03:28:08;17.17;;;8.73;;
43363;SDS011;40636;52.424;-1.948;2023-05-07T03:30:35;11.85;;;7.25;;
43363;SDS011;40636;52.424;-1.948;2023-05-07T03:33:01;16.55;;;8.95;;
43363;SDS011;40636;52.424;-1.948;2023-05-07T03:35:28;15.15;;;8.35;;
43363;SDS011;40636;52.424;-1.948;2023-05-07T03:37:55;16.30;;;8.20;;
43363;SDS011;40636;52.424;-1.948;2023-05-07T03:40:23;13.35;;;7.65;;
43363;SDS011;40636;52.424;-1.948;2023-05-07T03:42:51;15.30;;;8.93;;
43363;SDS011;40636;52.424;-1.948;2023-05-07T03:45:18;13.85;;;7.57;;
43363;SDS011;40636;52.424;-1.948;2023-05-07T03:47:45;15.65;;;8.07;;
43363;SDS011;40636;52.424;-1.948;2023-05-07T03:50:12;14.77;;;8.43;;
43363;SDS011;40636;52.424;-1.948;2023-05-07T03:52:39;12.95;;;7.97;;
43363;SDS011;40636;52.424;-1.948;2023-05-07T03:55:05;12.15;;;7.40;;
43363;SDS011;40636;52.424;-1.948;2023-05-07T03:57:33;13.80;;;7.72;;
43363;SDS011;40636;52.424;-1.948;2023-05-07T03:59:59;12.85;;;7.35;;
43363;SDS011;40636;52.424;-1.948;2023-05-07T04:02:26;15.02;;;8.00;;
43363;SDS011;40636;52.424;-1.948;2023-05-07T04:04:53;14.70;;;7.65;;
43363;SDS011;40636;52.424;-1.948;2023-05-07T04:07:20;14.27;;;8.18;;
43363;SDS011;40636;52.424;-1.948;2023-05-07T04:09:47;18.52;;;7.53;;
43363;SDS011;40636;52.424;-1.948;2023-05-07T04:12:14;14.32;;;7.82;;
43363;SDS011;40636;52.424;-1.948;2023-05-07T04:14:41;15.20;;;7.97;;
43363;SDS011;40636;52.424;-1.948;2023-05-07T04:17:08;11.50;;;7.57;;
43363;SDS011;40636;52.424;-1.948;2023-05-07T04:19:36;12.82;;;7.10;;
43363;SDS011;40636;52.424;-1.948;2023-05-07T04:22:02;15.90;;;7.70;;
43363;SDS011;40636;52.424;-1.948;2023-05-07T04:24:32;16.60;;;8.13;;
43363;SDS011;40636;52.424;-1.948;2023-05-07T04:26:59;13.50;;;7.50;;
43363;SDS011;40636;52.424;-1.948;2023-05-07T04:29:26;14.40;;;7.13;;
43363;SDS011;40636;52.424;-1.948;2023-05-07T04:31:53;12.23;;;7.55;;
43363;SDS011;40636;52.424;-1.948;2023-05-07T04:34:22;14.20;;;7.35;;
43363;SDS011;40636;52.424;-1.948;2023-05-07T04:36:48;12.38;;;7.00;;
43363;SDS011;40636;52.424;-1.948;2023-05-07T04:39:15;11.80;;;6.45;;
43363;SDS011;40636;52.424;-1.948;2023-05-07T04:41:42;11.25;;;6.50;;
43363;SDS011;40636;52.424;-1.948;2023-05-07T04:44:09;12.20;;;7.90;;
43363;SDS011;40636;52.424;-1.948;2023-05-07T04:46:36;12.38;;;6.75;;
43363;SDS011;40636;52.424;-1.948;2023-05-07T04:49:02;11.13;;;6.30;;
43363;SDS011;40636;52.424;-1.948;2023-05-07T04:51:29;9.68;;;5.40;;
43363;SDS011;40636;52.424;-1.948;2023-05-07T04:53:56;10.48;;;5.72;;
43363;SDS011;40636;52.424;-1.948;2023-05-07T04:56:23;13.43;;;7.03;;
43363;SDS011;40636;52.424;-1.948;2023-05-07T04:58:49;11.77;;;5.68;;
43363;SDS011;40636;52.424;-1.948;2023-05-07T05:01:17;14.13;;;6.38;;
43363;SDS011;40636;52.424;-1.948;2023-05-07T05:03:44;12.13;;;6.85;;
43363;SDS011;40636;52.424;-1.948;2023-05-07T05:06:11;11.35;;;6.10;;
43363;SDS011;40636;52.424;-1.948;2023-05-07T05:08:38;8.38;;;5.70;;
43363;SDS011;40636;52.424;-1.948;2023-05-07T05:11:04;10.32;;;5.60;;
43363;SDS011;40636;52.424;-1.948;2023-05-07T05:13:31;10.75;;;5.25;;
43363;SDS011;40636;52.424;-1.948;2023-05-07T05:15:58;8.77;;;5.25;;
43363;SDS011;40636;52.424;-1.948;2023-05-07T05:18:24;8.43;;;5.18;;
43363;SDS011;40636;52.424;-1.948;2023-05-07T05:20:51;14.40;;;5.28;;
43363;SDS011;40636;52.424;-1.948;2023-05-07T05:23:18;9.23;;;4.93;;
43363;SDS011;40636;52.424;-1.948;2023-05-07T05:25:46;9.32;;;4.20;;
43363;SDS011;40636;52.424;-1.948;2023-05-07T05:28:12;10.18;;;4.28;;
43363;SDS011;40636;52.424;-1.948;2023-05-07T05:30:39;6.75;;;4.28;;
43363;SDS011;40636;52.424;-1.948;2023-05-07T05:33:06;8.15;;;4.25;;
43363;SDS011;40636;52.424;-1.948;2023-05-07T05:35:33;9.57;;;4.82;;
43363;SDS011;40636;52.424;-1.948;2023-05-07T05:38:01;8.18;;;5.03;;
43363;SDS011;40636;52.424;-1.948;2023-05-07T05:40:28;7.00;;;4.70;;
43363;SDS011;40636;52.424;-1.948;2023-05-07T05:42:55;6.18;;;3.97;;
43363;SDS011;40636;52.424;-1.948;2023-05-07T05:45:22;13.02;;;4.70;;
43363;SDS011;40636;52.424;-1.948;2023-05-07T05:47:48;11.70;;;4.45;;
43363;SDS011;40636;52.424;-1.948;2023-05-07T05:50:15;9.98;;;4.70;;
43363;SDS011;40636;52.424;-1.948;2023-05-07T05:52:42;6.32;;;4.05;;
43363;SDS011;40636;52.424;-1.948;2023-05-07T05:58:22;7.63;;;4.25;;
43363;SDS011;40636;52.424;-1.948;2023-05-07T06:01:00;7.60;;;3.80;;
43363;SDS011;40636;52.424;-1.948;2023-05-07T06:06:44;7.28;;;3.63;;
43363;SDS011;40636;52.424;-1.948;2023-05-07T06:09:13;7.57;;;4.65;;
43363;SDS011;40636;52.424;-1.948;2023-05-07T06:12:24;6.15;;;4.05;;
43363;SDS011;40636;52.424;-1.948;2023-05-07T06:15:08;5.38;;;3.63;;
43363;SDS011;40636;52.424;-1.948;2023-05-07T06:17:38;9.98;;;4.28;;
43363;SDS011;40636;52.424;-1.948;2023-05-07T06:20:08;8.32;;;3.50;;
43363;SDS011;40636;52.424;-1.948;2023-05-07T06:22:38;9.23;;;3.95;;
43363;SDS011;40636;52.424;-1.948;2023-05-07T06:25:15;8.93;;;4.75;;
43363;SDS011;40636;52.424;-1.948;2023-05-07T06:27:46;10.45;;;4.78;;
43363;SDS011;40636;52.424;-1.948;2023-05-07T06:30:14;12.07;;;4.65;;
43363;SDS011;40636;52.424;-1.948;2023-05-07T06:32:41;16.45;;;5.47;;
43363;SDS011;40636;52.424;-1.948;2023-05-07T06:35:08;7.35;;;3.95;;
43363;SDS011;40636;52.424;-1.948;2023-05-07T06:37:35;11.40;;;4.75;;
43363;SDS011;40636;52.424;-1.948;2023-05-07T06:40:05;7.57;;;4.25;;
43363;SDS011;40636;52.424;-1.948;2023-05-07T06:42:33;8.80;;;3.83;;
43363;SDS011;40636;52.424;-1.948;2023-05-07T06:45:00;5.97;;;3.45;;
43363;SDS011;40636;52.424;-1.948;2023-05-07T06:47:27;7.47;;;3.28;;
43363;SDS011;40636;52.424;-1.948;2023-05-07T06:49:54;7.18;;;3.53;;
43363;SDS011;40636;52.424;-1.948;2023-05-07T06:52:20;6.75;;;2.70;;
43363;SDS011;40636;52.424;-1.948;2023-05-07T06:54:47;7.05;;;2.15;;
43363;SDS011;40636;52.424;-1.948;2023-05-07T06:57:14;7.70;;;2.67;;
43363;SDS011;40636;52.424;-1.948;2023-05-07T06:59:41;8.32;;;3.15;;
43363;SDS011;40636;52.424;-1.948;2023-05-07T07:02:08;8.43;;;2.80;;
43363;SDS011;40636;52.424;-1.948;2023-05-07T07:04:34;5.72;;;2.90;;
43363;SDS011;40636;52.424;-1.948;2023-05-07T07:07:01;6.82;;;2.80;;
43363;SDS011;40636;52.424;-1.948;2023-05-07T07:09:28;7.90;;;3.47;;
43363;SDS011;40636;52.424;-1.948;2023-05-07T07:11:54;7.30;;;2.78;;
43363;SDS011;40636;52.424;-1.948;2023-05-07T07:14:21;11.48;;;3.13;;
43363;SDS011;40636;52.424;-1.948;2023-05-07T07:16:48;6.25;;;2.83;;
43363;SDS011;40636;52.424;-1.948;2023-05-07T07:19:15;9.05;;;3.15;;
43363;SDS011;40636;52.424;-1.948;2023-05-07T07:21:41;6.72;;;2.50;;
43363;SDS011;40636;52.424;-1.948;2023-05-07T07:24:08;5.38;;;2.63;;
43363;SDS011;40636;52.424;-1.948;2023-05-07T07:26:35;6.95;;;2.78;;
43363;SDS011;40636;52.424;-1.948;2023-05-07T07:29:02;6.63;;;2.50;;
43363;SDS011;40636;52.424;-1.948;2023-05-07T07:31:28;5.43;;;2.72;;
43363;SDS011;40636;52.424;-1.948;2023-05-07T07:33:55;5.72;;;2.45;;
43363;SDS011;40636;52.424;-1.948;2023-05-07T07:36:22;4.10;;;2.45;;
43363;SDS011;40636;52.424;-1.948;2023-05-07T07:39:04;4.88;;;3.00;;
43363;SDS011;40636;52.424;-1.948;2023-05-07T07:41:30;9.77;;;2.88;;
43363;SDS011;40636;52.424;-1.948;2023-05-07T07:43:57;6.78;;;2.75;;
43363;SDS011;40636;52.424;-1.948;2023-05-07T07:46:24;6.03;;;2.40;;
43363;SDS011;40636;52.424;-1.948;2023-05-07T07:48:50;4.13;;;2.35;;
43363;SDS011;40636;52.424;-1.948;2023-05-07T07:51:17;7.40;;;3.17;;
43363;SDS011;40636;52.424;-1.948;2023-05-07T07:53:44;7.70;;;3.10;;
43363;SDS011;40636;52.424;-1.948;2023-05-07T07:56:11;5.90;;;2.78;;
43363;SDS011;40636;52.424;-1.948;2023-05-07T07:58:38;5.57;;;2.67;;
43363;SDS011;40636;52.424;-1.948;2023-05-07T08:01:05;7.13;;;2.97;;
43363;SDS011;40636;52.424;-1.948;2023-05-07T08:03:32;4.35;;;2.75;;
43363;SDS011;40636;52.424;-1.948;2023-05-07T08:05:59;4.63;;;2.58;;
43363;SDS011;40636;52.424;-1.948;2023-05-07T08:08:26;6.35;;;2.80;;
43363;SDS011;40636;52.424;-1.948;2023-05-07T08:10:53;9.70;;;3.17;;
43363;SDS011;40636;52.424;-1.948;2023-05-07T08:13:19;6.30;;;2.95;;
43363;SDS011;40636;52.424;-1.948;2023-05-07T08:15:46;7.68;;;2.03;;
43363;SDS011;40636;52.424;-1.948;2023-05-07T08:18:13;7.63;;;2.55;;
43363;SDS011;40636;52.424;-1.948;2023-05-07T08:20:40;8.23;;;2.72;;
43363;SDS011;40636;52.424;-1.948;2023-05-07T08:23:07;5.45;;;2.08;;
43363;SDS011;40636;52.424;-1.948;2023-05-07T08:25:34;11.88;;;3.53;;
43363;SDS011;40636;52.424;-1.948;2023-05-07T08:28:01;10.27;;;3.15;;
43363;SDS011;40636;52.424;-1.948;2023-05-07T08:30:28;4.85;;;2.45;;
43363;SDS011;40636;52.424;-1.948;2023-05-07T08:32:55;4.78;;;2.50;;
43363;SDS011;40636;52.424;-1.948;2023-05-07T08:35:21;8.38;;;2.25;;
43363;SDS011;40636;52.424;-1.948;2023-05-07T08:37:48;9.23;;;2.63;;
43363;SDS011;40636;52.424;-1.948;2023-05-07T08:40:15;6.25;;;2.47;;
43363;SDS011;40636;52.424;-1.948;2023-05-07T08:42:42;5.55;;;2.75;;
43363;SDS011;40636;52.424;-1.948;2023-05-07T08:45:10;7.68;;;2.92;;
43363;SDS011;40636;52.424;-1.948;2023-05-07T08:47:44;3.58;;;2.22;;
43363;SDS011;40636;52.424;-1.948;2023-05-07T08:50:18;9.00;;;2.47;;
43363;SDS011;40636;52.424;-1.948;2023-05-07T08:52:47;7.70;;;2.75;;
43363;SDS011;40636;52.424;-1.948;2023-05-07T08:55:14;3.00;;;2.50;;
43363;SDS011;40636;52.424;-1.948;2023-05-07T08:57:41;6.90;;;2.55;;
43363;SDS011;40636;52.424;-1.948;2023-05-07T09:00:08;5.70;;;2.05;;
43363;SDS011;40636;52.424;-1.948;2023-05-07T09:02:36;7.45;;;2.05;;
43363;SDS011;40636;52.424;-1.948;2023-05-07T09:05:03;5.30;;;2.33;;
43363;SDS011;40636;52.424;-1.948;2023-05-07T09:07:30;6.35;;;3.10;;
43363;SDS011;40636;52.424;-1.948;2023-05-07T09:09:57;3.97;;;1.95;;
43363;SDS011;40636;52.424;-1.948;2023-05-07T09:12:24;3.75;;;2.28;;
43363;SDS011;40636;52.424;-1.948;2023-05-07T09:14:51;4.85;;;2.33;;
43363;SDS011;40636;52.424;-1.948;2023-05-07T09:17:17;4.10;;;1.90;;
43363;SDS011;40636;52.424;-1.948;2023-05-07T09:19:44;5.68;;;2.42;;
43363;SDS011;40636;52.424;-1.948;2023-05-07T09:22:12;8.88;;;2.40;;
43363;SDS011;40636;52.424;-1.948;2023-05-07T09:24:39;7.35;;;2.35;;
43363;SDS011;40636;52.424;-1.948;2023-05-07T09:27:06;3.92;;;2.30;;
43363;SDS011;40636;52.424;-1.948;2023-05-07T09:29:34;8.85;;;2.05;;
43363;SDS011;40636;52.424;-1.948;2023-05-07T09:32:02;2.50;;;1.70;;
43363;SDS011;40636;52.424;-1.948;2023-05-07T09:34:30;4.45;;;2.28;;
43363;SDS011;40636;52.424;-1.948;2023-05-07T09:37:01;4.22;;;2.08;;
43363;SDS011;40636;52.424;-1.948;2023-05-07T09:39:49;3.75;;;2.00;;
43363;SDS011;40636;52.424;-1.948;2023-05-07T09:42:15;8.15;;;2.05;;
43363;SDS011;40636;52.424;-1.948;2023-05-07T09:44:45;2.33;;;1.33;;
43363;SDS011;40636;52.424;-1.948;2023-05-07T09:47:14;4.10;;;1.73;;
43363;SDS011;40636;52.424;-1.948;2023-05-07T09:49:50;3.10;;;1.58;;
43363;SDS011;40636;52.424;-1.948;2023-05-07T09:52:21;4.35;;;1.63;;
43363;SDS011;40636;52.424;-1.948;2023-05-07T09:54:50;3.28;;;2.00;;
43363;SDS011;40636;52.424;-1.948;2023-05-07T09:57:17;4.15;;;1.38;;
43363;SDS011;40636;52.424;-1.948;2023-05-07T09:59:46;4.80;;;1.33;;
43363;SDS011;40636;52.424;-1.948;2023-05-07T10:02:14;3.55;;;1.83;;
43363;SDS011;40636;52.424;-1.948;2023-05-07T10:04:42;5.72;;;2.28;;
43363;SDS011;40636;52.424;-1.948;2023-05-07T10:07:09;6.68;;;1.83;;
43363;SDS011;40636;52.424;-1.948;2023-05-07T10:09:35;6.68;;;1.95;;
43363;SDS011;40636;52.424;-1.948;2023-05-07T10:12:05;4.30;;;1.85;;
43363;SDS011;40636;52.424;-1.948;2023-05-07T10:14:32;2.28;;;1.55;;
43363;SDS011;40636;52.424;-1.948;2023-05-07T10:17:00;2.63;;;1.40;;
43363;SDS011;40636;52.424;-1.948;2023-05-07T10:19:29;6.38;;;1.48;;
43363;SDS011;40636;52.424;-1.948;2023-05-07T10:21:57;2.05;;;1.00;;
43363;SDS011;40636;52.424;-1.948;2023-05-07T10:24:30;3.05;;;1.20;;
43363;SDS011;40636;52.424;-1.948;2023-05-07T10:27:00;3.17;;;1.33;;
43363;SDS011;40636;52.424;-1.948;2023-05-07T10:35:02;5.75;;;1.80;;
43363;SDS011;40636;52.424;-1.948;2023-05-07T10:37:33;4.53;;;1.38;;
43363;SDS011;40636;52.424;-1.948;2023-05-07T10:40:00;3.75;;;1.40;;
43363;SDS011;40636;52.424;-1.948;2023-05-07T10:42:27;2.63;;;1.65;;
43363;SDS011;40636;52.424;-1.948;2023-05-07T10:44:54;6.53;;;1.63;;
43363;SDS011;40636;52.424;-1.948;2023-05-07T10:47:21;3.58;;;1.45;;
43363;SDS011;40636;52.424;-1.948;2023-05-07T10:52:16;5.05;;;2.65;;
43363;SDS011;40636;52.424;-1.948;2023-05-07T10:54:44;4.60;;;1.45;;
43363;SDS011;40636;52.424;-1.948;2023-05-07T11:00:03;2.85;;;1.73;;
43363;SDS011;40636;52.424;-1.948;2023-05-07T11:05:31;3.53;;;1.30;;
43363;SDS011;40636;52.424;-1.948;2023-05-07T11:08:03;1.20;;;1.10;;
43363;SDS011;40636;52.424;-1.948;2023-05-07T11:10:50;3.17;;;0.98;;
43363;SDS011;40636;52.424;-1.948;2023-05-07T11:13:19;4.43;;;1.60;;
43363;SDS011;40636;52.424;-1.948;2023-05-07T11:16:21;1.42;;;0.95;;
43363;SDS011;40636;52.424;-1.948;2023-05-07T11:18:58;4.03;;;1.60;;
43363;SDS011;40636;52.424;-1.948;2023-05-07T11:24:08;5.22;;;1.42;;
43363;SDS011;40636;52.424;-1.948;2023-05-07T11:26:43;5.70;;;2.80;;
43363;SDS011;40636;52.424;-1.948;2023-05-07T11:29:19;6.07;;;1.73;;
43363;SDS011;40636;52.424;-1.948;2023-05-07T11:31:49;2.15;;;1.17;;
43363;SDS011;40636;52.424;-1.948;2023-05-07T11:34:23;2.40;;;1.05;;
43363;SDS011;40636;52.424;-1.948;2023-05-07T11:36:52;2.20;;;1.10;;
43363;SDS011;40636;52.424;-1.948;2023-05-07T11:39:23;2.65;;;1.10;;
43363;SDS011;40636;52.424;-1.948;2023-05-07T11:41:53;2.00;;;0.98;;
43363;SDS011;40636;52.424;-1.948;2023-05-07T11:44:20;2.10;;;1.90;;
43363;SDS011;40636;52.424;-1.948;2023-05-07T11:46:48;2.40;;;1.17;;
43363;SDS011;40636;52.424;-1.948;2023-05-07T11:49:15;5.40;;;1.38;;
43363;SDS011;40636;52.424;-1.948;2023-05-07T11:51:43;2.47;;;1.23;;
43363;SDS011;40636;52.424;-1.948;2023-05-07T11:54:11;1.63;;;0.98;;
43363;SDS011;40636;52.424;-1.948;2023-05-07T11:56:39;2.85;;;1.30;;
43363;SDS011;40636;52.424;-1.948;2023-05-07T11:59:06;1.88;;;1.67;;
43363;SDS011;40636;52.424;-1.948;2023-05-07T12:01:34;2.95;;;0.90;;
43363;SDS011;40636;52.424;-1.948;2023-05-07T12:04:02;5.30;;;4.80;;
43363;SDS011;40636;52.424;-1.948;2023-05-07T12:06:30;7.20;;;5.68;;
43363;SDS011;40636;52.424;-1.948;2023-05-07T12:08:57;1.83;;;1.70;;
43363;SDS011;40636;52.424;-1.948;2023-05-07T12:11:24;17.73;;;15.38;;
43363;SDS011;40636;52.424;-1.948;2023-05-07T12:13:53;24.70;;;16.23;;
43363;SDS011;40636;52.424;-1.948;2023-05-07T12:16:24;2.38;;;1.67;;
43363;SDS011;40636;52.424;-1.948;2023-05-07T12:18:51;2.00;;;1.15;;
43363;SDS011;40636;52.424;-1.948;2023-05-07T12:21:21;4.75;;;2.03;;
43363;SDS011;40636;52.424;-1.948;2023-05-07T12:23:49;2.80;;;1.77;;
43363;SDS011;40636;52.424;-1.948;2023-05-07T12:26:16;2.72;;;1.63;;
43363;SDS011;40636;52.424;-1.948;2023-05-07T12:28:47;7.07;;;1.58;;
43363;SDS011;40636;52.424;-1.948;2023-05-07T12:31:15;2.05;;;1.27;;
43363;SDS011;40636;52.424;-1.948;2023-05-07T12:33:42;3.05;;;1.40;;
43363;SDS011;40636;52.424;-1.948;2023-05-07T12:36:11;3.80;;;1.50;;
43363;SDS011;40636;52.424;-1.948;2023-05-07T12:38:39;3.28;;;1.27;;
43363;SDS011;40636;52.424;-1.948;2023-05-07T12:41:08;2.20;;;1.33;;
43363;SDS011;40636;52.424;-1.948;2023-05-07T12:43:36;7.82;;;1.55;;
43363;SDS011;40636;52.424;-1.948;2023-05-07T12:46:04;3.47;;;1.98;;
43363;SDS011;40636;52.424;-1.948;2023-05-07T12:48:32;4.00;;;2.13;;
43363;SDS011;40636;52.424;-1.948;2023-05-07T12:51:00;3.53;;;1.30;;
43363;SDS011;40636;52.424;-1.948;2023-05-07T12:53:29;3.97;;;1.40;;
43363;SDS011;40636;52.424;-1.948;2023-05-07T12:55:58;3.45;;;1.08;;
43363;SDS011;40636;52.424;-1.948;2023-05-07T12:58:27;1.75;;;0.80;;
43363;SDS011;40636;52.424;-1.948;2023-05-07T13:00:55;6.20;;;1.25;;
43363;SDS011;40636;52.424;-1.948;2023-05-07T13:03:27;1.23;;;1.05;;
43363;SDS011;40636;52.424;-1.948;2023-05-07T13:05:57;2.72;;;1.02;;
43363;SDS011;40636;52.424;-1.948;2023-05-07T13:08:29;3.47;;;1.83;;
43363;SDS011;40636;52.424;-1.948;2023-05-07T13:11:01;4.35;;;1.10;;
43363;SDS011;40636;52.424;-1.948;2023-05-07T13:13:33;3.88;;;1.00;;
43363;SDS011;40636;52.424;-1.948;2023-05-07T13:16:01;1.40;;;0.90;;
43363;SDS011;40636;52.424;-1.948;2023-05-07T13:18:29;2.88;;;1.10;;
43363;SDS011;40636;52.424;-1.948;2023-05-07T13:20:57;4.65;;;1.58;;
43363;SDS011;40636;52.424;-1.948;2023-05-07T13:23:24;2.55;;;1.00;;
43363;SDS011;40636;52.424;-1.948;2023-05-07T13:25:52;1.33;;;0.80;;
43363;SDS011;40636;52.424;-1.948;2023-05-07T13:28:27;2.05;;;1.30;;
43363;SDS011;40636;52.424;-1.948;2023-05-07T13:31:00;4.55;;;1.13;;
43363;SDS011;40636;52.424;-1.948;2023-05-07T13:33:27;3.33;;;1.20;;
43363;SDS011;40636;52.424;-1.948;2023-05-07T13:35:54;6.47;;;2.30;;
43363;SDS011;40636;52.424;-1.948;2023-05-07T13:38:23;2.97;;;1.00;;
43363;SDS011;40636;52.424;-1.948;2023-05-07T13:40:51;4.57;;;1.02;;
43363;SDS011;40636;52.424;-1.948;2023-05-07T13:43:18;3.60;;;1.23;;
43363;SDS011;40636;52.424;-1.948;2023-05-07T13:45:46;6.28;;;1.20;;
43363;SDS011;40636;52.424;-1.948;2023-05-07T13:48:14;4.95;;;0.95;;
43363;SDS011;40636;52.424;-1.948;2023-05-07T13:50:42;5.45;;;1.02;;
43363;SDS011;40636;52.424;-1.948;2023-05-07T13:53:09;4.25;;;1.38;;
43363;SDS011;40636;52.424;-1.948;2023-05-07T13:55:36;2.60;;;1.17;;
43363;SDS011;40636;52.424;-1.948;2023-05-07T13:58:04;2.13;;;1.27;;
43363;SDS011;40636;52.424;-1.948;2023-05-07T14:00:33;2.63;;;1.20;;
43363;SDS011;40636;52.424;-1.948;2023-05-07T14:03:01;3.35;;;1.27;;
43363;SDS011;40636;52.424;-1.948;2023-05-07T14:05:29;2.97;;;1.30;;
43363;SDS011;40636;52.424;-1.948;2023-05-07T14:07:58;2.97;;;1.60;;
43363;SDS011;40636;52.424;-1.948;2023-05-07T14:10:25;1.35;;;1.00;;
43363;SDS011;40636;52.424;-1.948;2023-05-07T14:12:52;4.28;;;1.13;;
43363;SDS011;40636;52.424;-1.948;2023-05-07T14:15:21;1.75;;;1.20;;
43363;SDS011;40636;52.424;-1.948;2023-05-07T14:17:48;2.95;;;1.27;;
43363;SDS011;40636;52.424;-1.948;2023-05-07T14:20:16;1.08;;;0.90;;
43363;SDS011;40636;52.424;-1.948;2023-05-07T14:22:45;5.78;;;2.00;;
43363;SDS011;40636;52.424;-1.948;2023-05-07T14:25:11;5.22;;;1.77;;
43363;SDS011;40636;52.424;-1.948;2023-05-07T14:27:39;2.10;;;1.50;;
43363;SDS011;40636;52.424;-1.948;2023-05-07T14:30:06;3.15;;;1.25;;
43363;SDS011;40636;52.424;-1.948;2023-05-07T14:32:33;2.00;;;1.25;;
43363;SDS011;40636;52.424;-1.948;2023-05-07T14:35:00;3.88;;;1.48;;
43363;SDS011;40636;52.424;-1.948;2023-05-07T14:37:27;2.50;;;1.42;;
43363;SDS011;40636;52.424;-1.948;2023-05-07T14:39:54;2.20;;;1.08;;
43363;SDS011;40636;52.424;-1.948;2023-05-07T14:42:21;3.63;;;2.45;;
43363;SDS011;40636;52.424;-1.948;2023-05-07T14:44:47;20.25;;;13.85;;
43363;SDS011;40636;52.424;-1.948;2023-05-07T14:47:14;2.45;;;1.92;;
43363;SDS011;40636;52.424;-1.948;2023-05-07T14:49:45;2.75;;;0.90;;
43363;SDS011;40636;52.424;-1.948;2023-05-07T14:52:11;3.92;;;2.67;;
43363;SDS011;40636;52.424;-1.948;2023-05-07T14:54:38;2.47;;;1.48;;
43363;SDS011;40636;52.424;-1.948;2023-05-07T14:57:06;4.90;;;3.13;;
43363;SDS011;40636;52.424;-1.948;2023-05-07T14:59:34;1.65;;;1.38;;